1G0 weather

Wood County Airport
Bowling Green, Ohio, United States

Public forecast

Using degrees Fahrenheit for public forecast. Weather courtesy of forecast.io.

METAR (pilot weather report)

Closest report is Toledo Executive Airport, 12.4 nm (22.9 km) NNE. Retrieved 2019/03/26 14:07 UTC (26 minutes ago):

KTDZ 261407Z AUTO 03007KT 10SM SCT026 01/M06 A3046 RMK AO2 T00061061

TAF (pilot weather forecast)

Closest forecast is Toledo Express Airport, 14.2 nm (26.3 km) NW. Retrieved 2019/03/26 12:22 UTC (2 hours ago):

TAF KTOL 261120Z 2612/2712 03006KT P6SM SKC FM262000 09005KT P6SM SKC